Time;durP1;ratioP1;P1;durP2;ratioP2;P2;SDS_P1;SDS_P2;PMS_P1;PMS_P2;Temp;Humidity;BMP_temperature;BMP_pressure;BME280_temperature;BME280_humidity;BME280_pressure;Samples;Min_cycle;Max_cycle;Signal;HPM_P1;HPM_P2
2022/04/20 00:00:17;;;;;;;1.63;1.03;;;12.00;99.90;;;;;;4849100;29;20474;-60
2022/04/20 00:02:48;;;;;;;1.37;1.27;;;12.00;99.90;;;;;;4848148;29;20505;-60
2022/04/20 00:05:18;;;;;;;2.30;1.53;;;12.20;99.90;;;;;;4840009;29;20497;-59
2022/04/20 00:07:51;;;;;;;1.30;1.20;;;12.20;99.90;;;;;;4849439;29;20466;-59
2022/04/20 00:10:22;;;;;;;1.10;1.00;;;12.00;99.90;;;;;;4850185;29;20494;-61
2022/04/20 00:12:53;;;;;;;1.43;1.33;;;11.90;99.90;;;;;;4851111;29;20469;-61
2022/04/20 00:15:24;;;;;;;1.10;1.10;;;11.90;99.90;;;;;;4851148;29;20466;-61
2022/04/20 00:17:55;;;;;;;1.20;1.10;;;11.70;99.90;;;;;;4849048;29;20478;-60
2022/04/20 00:20:25;;;;;;;1.10;1.00;;;11.50;99.90;;;;;;4850360;29;20514;-60
2022/04/20 00:22:58;;;;;;;7.03;1.33;;;11.60;99.90;;;;;;4850683;29;20498;-60
2022/04/20 00:25:29;;;;;;;0.83;0.83;;;11.40;99.90;;;;;;4841136;29;20485;-61
2022/04/20 00:28:00;;;;;;;1.00;0.80;;;11.50;99.90;;;;;;4846435;29;20932;-60
2022/04/20 00:30:30;;;;;;;0.77;0.77;;;11.50;99.90;;;;;;4847915;29;20474;-61
2022/04/20 00:33:01;;;;;;;0.90;0.90;;;11.40;99.90;;;;;;4850057;29;20466;-60
2022/04/20 00:35:33;;;;;;;1.50;0.80;;;11.20;99.90;;;;;;4851327;29;20772;-59
2022/04/20 00:38:05;;;;;;;2.00;1.00;;;11.00;99.90;;;;;;4849141;29;20463;-58
2022/04/20 00:40:37;;;;;;;1.67;1.10;;;11.00;99.90;;;;;;4851214;29;20500;-59
2022/04/20 00:43:09;;;;;;;0.90;0.67;;;10.90;99.90;;;;;;4849308;29;20509;-66
2022/04/20 00:45:42;;;;;;;1.23;0.90;;;10.80;99.90;;;;;;4847816;29;20478;-64
2022/04/20 00:48:13;;;;;;;0.80;0.80;;;10.80;99.90;;;;;;4849627;29;20474;-64
2022/04/20 00:50:45;;;;;;;1.33;0.90;;;10.80;99.90;;;;;;4843314;29;20471;-61
2022/04/20 00:53:17;;;;;;;0.80;0.80;;;11.00;99.90;;;;;;4849577;29;20469;-64
2022/04/20 00:55:48;;;;;;;0.90;0.90;;;11.00;99.90;;;;;;4848437;29;20470;-64
2022/04/20 00:58:19;;;;;;;0.90;0.90;;;11.10;99.90;;;;;;4845286;29;20474;-65
2022/04/20 01:00:50;;;;;;;0.90;0.90;;;11.20;99.90;;;;;;4851112;29;20609;-66
2022/04/20 01:03:21;;;;;;;0.77;0.77;;;11.20;99.90;;;;;;4848572;29;20505;-66
2022/04/20 01:05:52;;;;;;;1.17;0.80;;;11.30;99.90;;;;;;4840667;29;20470;-61
2022/04/20 01:08:25;;;;;;;0.97;0.97;;;11.30;99.90;;;;;;4850173;29;20522;-65
2022/04/20 01:10:55;;;;;;;0.97;0.97;;;11.30;99.90;;;;;;4844212;29;20513;-64
2022/04/20 01:13:26;;;;;;;0.90;0.90;;;11.30;99.90;;;;;;4848818;29;20549;-59
2022/04/20 01:15:57;;;;;;;0.90;0.90;;;11.30;99.90;;;;;;4839993;29;20486;-59
2022/04/20 01:18:28;;;;;;;0.97;0.97;;;11.20;99.90;;;;;;4845417;29;20473;-62
2022/04/20 01:21:01;;;;;;;2.50;1.10;;;11.20;99.90;;;;;;4849114;29;20493;-65
2022/04/20 01:23:32;;;;;;;0.90;0.90;;;11.20;99.90;;;;;;4847574;29;20648;-63
2022/04/20 01:26:06;;;;;;;1.40;1.30;;;11.20;99.90;;;;;;4844987;29;20451;-62
2022/04/20 01:28:38;;;;;;;1.20;1.10;;;11.30;99.90;;;;;;4846546;29;20502;-63
2022/04/20 01:31:08;;;;;;;1.07;1.00;;;11.30;99.90;;;;;;4849946;29;20459;-58
2022/04/20 01:33:39;;;;;;;1.47;1.37;;;11.10;99.90;;;;;;4844469;29;20480;-59
2022/04/20 01:36:12;;;;;;;0.83;0.83;;;11.10;99.90;;;;;;4850598;29;20470;-59
2022/04/20 01:38:43;;;;;;;1.10;1.00;;;11.10;99.90;;;;;;4844683;29;20466;-59
2022/04/20 01:41:14;;;;;;;1.10;1.00;;;11.10;99.90;;;;;;4850409;29;20466;-59
2022/04/20 01:43:45;;;;;;;0.93;0.90;;;11.00;99.90;;;;;;4843979;29;20502;-59
2022/04/20 01:46:16;;;;;;;1.63;1.17;;;11.20;99.90;;;;;;4850853;29;20458;-59
2022/04/20 01:48:47;;;;;;;1.20;1.20;;;11.30;99.90;;;;;;4848459;29;20493;-59
2022/04/20 01:54:07;;;;;;;1.40;1.30;;;11.30;99.90;;;;;;4845817;29;20474;-60
2022/04/20 01:56:38;;;;;;;1.40;1.30;;;11.40;99.90;;;;;;4835319;29;20469;-58
2022/04/20 01:59:09;;;;;;;1.40;1.30;;;11.30;99.90;;;;;;4846894;29;20485;-59
2022/04/20 02:04:28;;;;;;;1.27;1.20;;;11.30;99.90;;;;;;4852749;29;20484;-60
2022/04/20 02:07:00;;;;;;;1.20;1.20;;;11.20;99.90;;;;;;4852950;29;20525;-60
2022/04/20 02:09:31;;;;;;;1.20;1.10;;;11.10;99.90;;;;;;4844253;29;20470;-60
2022/04/20 02:12:02;;;;;;;1.63;1.20;;;11.20;99.90;;;;;;4842795;29;20458;-59
2022/04/20 02:14:33;;;;;;;1.20;1.10;;;11.10;99.90;;;;;;4852429;29;20474;-59
2022/04/20 02:17:05;;;;;;;1.50;1.40;;;10.90;99.90;;;;;;4848118;29;20467;-59
2022/04/20 02:19:36;;;;;;;1.37;1.27;;;10.70;99.90;;;;;;4849864;29;20466;-60
2022/04/20 02:22:08;;;;;;;1.23;1.13;;;10.70;99.90;;;;;;4852075;29;20474;-60
2022/04/20 02:24:39;;;;;;;1.33;1.20;;;10.50;99.90;;;;;;4851825;29;20484;-60
2022/04/20 02:27:10;;;;;;;1.43;1.20;;;10.50;99.90;;;;;;4846102;29;20446;-60
2022/04/20 02:29:41;;;;;;;1.47;1.33;;;10.30;99.90;;;;;;4845636;29;20554;-60
2022/04/20 02:32:12;;;;;;;2.60;1.70;;;10.30;99.90;;;;;;4851687;29;20515;-60
2022/04/20 02:34:43;;;;;;;10.33;1.60;;;10.40;99.90;;;;;;4848186;29;20462;-60
2022/04/20 02:37:16;;;;;;;1.37;1.20;;;10.50;99.90;;;;;;4842387;29;20459;-59
2022/04/20 02:39:47;;;;;;;1.10;1.10;;;10.50;99.90;;;;;;4849396;29;20462;-61
2022/04/20 02:42:19;;;;;;;1.50;1.30;;;10.40;99.90;;;;;;4853416;29;20468;-60
2022/04/20 02:44:50;;;;;;;1.27;1.17;;;10.30;99.90;;;;;;4839934;29;20463;-61
2022/04/20 02:47:20;;;;;;;1.40;1.13;;;10.30;99.90;;;;;;4853071;29;20779;-60
2022/04/20 02:49:51;;;;;;;1.30;1.20;;;10.10;99.90;;;;;;4852442;29;20469;-59
2022/04/20 02:52:24;;;;;;;1.50;1.40;;;10.20;99.90;;;;;;4846592;29;20586;-61
2022/04/20 02:54:54;;;;;;;1.50;1.40;;;10.30;99.90;;;;;;4845954;29;20481;-59
2022/04/20 02:57:25;;;;;;;3.67;1.80;;;10.10;99.90;;;;;;4851203;29;20461;-59
2022/04/20 02:59:56;;;;;;;2.13;2.03;;;9.90;99.90;;;;;;4851567;29;20804;-60
2022/04/20 03:02:27;;;;;;;3.43;2.30;;;9.80;99.90;;;;;;4852583;29;20455;-59
2022/04/20 03:04:58;;;;;;;4.30;2.23;;;9.70;99.90;;;;;;4851286;29;20458;-59
2022/04/20 03:07:30;;;;;;;2.37;2.17;;;9.60;99.90;;;;;;4852135;29;20451;-60
2022/04/20 03:10:01;;;;;;;2.47;2.00;;;9.60;99.90;;;;;;4853401;29;20794;-59
2022/04/20 03:12:32;;;;;;;2.70;2.50;;;9.60;99.90;;;;;;4851686;29;20474;-59
2022/04/20 03:15:03;;;;;;;5.43;3.10;;;9.60;99.90;;;;;;4849716;29;20550;-59
2022/04/20 03:17:34;;;;;;;3.20;2.90;;;9.60;99.90;;;;;;4851439;29;20454;-59
2022/04/20 03:20:05;;;;;;;4.73;2.10;;;9.60;99.90;;;;;;4852085;29;20509;-59
2022/04/20 03:22:38;;;;;;;3.07;2.37;;;9.60;99.90;;;;;;4850179;29;20470;-59
2022/04/20 03:25:11;;;;;;;2.80;2.57;;;9.60;99.90;;;;;;4852822;29;20454;-60
2022/04/20 03:27:42;;;;;;;4.07;3.43;;;9.60;99.90;;;;;;4846175;29;20474;-60
2022/04/20 03:30:14;;;;;;;4.20;3.10;;;9.60;99.90;;;;;;4849052;29;20475;-61
2022/04/20 03:32:45;;;;;;;3.60;3.30;;;9.60;99.90;;;;;;4843141;29;20956;-59
2022/04/20 03:35:19;;;;;;;2.50;2.30;;;9.60;99.90;;;;;;4853663;29;20459;-61
2022/04/20 03:37:52;;;;;;;3.80;2.80;;;9.70;99.90;;;;;;4850572;29;20545;-61
2022/04/20 03:40:25;;;;;;;2.93;2.73;;;9.90;99.90;;;;;;4852186;29;20473;-60
2022/04/20 03:42:58;;;;;;;2.37;2.17;;;9.70;99.90;;;;;;4851277;29;20530;-60
2022/04/20 03:45:37;;;;;;;2.50;2.30;;;9.70;99.90;;;;;;4850553;29;20493;-60
2022/04/20 03:48:08;;;;;;;3.13;2.80;;;9.70;99.90;;;;;;4851788;29;20462;-61
2022/04/20 03:50:41;;;;;;;5.77;2.73;;;9.70;99.90;;;;;;4851545;29;20466;-60
2022/04/20 03:53:14;;;;;;;3.37;2.90;;;9.70;99.90;;;;;;4850728;29;20824;-61
2022/04/20 03:55:45;;;;;;;3.83;2.93;;;9.60;99.90;;;;;;4846719;29;20505;-60
2022/04/20 03:58:16;;;;;;;6.17;3.13;;;9.70;99.90;;;;;;4850558;29;20470;-60
2022/04/20 04:00:47;;;;;;;4.07;3.77;;;9.70;99.90;;;;;;4842798;29;20470;-59
2022/04/20 04:03:17;;;;;;;3.90;3.60;;;9.70;99.90;;;;;;4850901;29;20596;-60
2022/04/20 04:05:48;;;;;;;4.37;4.07;;;9.70;99.90;;;;;;4850846;29;20470;-60
2022/04/20 04:08:21;;;;;;;5.17;4.77;;;9.50;99.90;;;;;;4848133;29;20454;-60
2022/04/20 04:10:54;;;;;;;5.10;4.70;;;9.40;99.90;;;;;;4851161;29;20513;-60
2022/04/20 04:13:25;;;;;;;4.63;4.30;;;9.30;99.90;;;;;;4846690;29;20482;-60
2022/04/20 04:16:01;;;;;;;5.23;4.83;;;9.20;99.90;;;;;;4851536;29;20826;-60
2022/04/20 04:18:32;;;;;;;5.55;4.97;;;9.10;99.90;;;;;;4850610;29;20473;-60
2022/04/20 04:21:05;;;;;;;5.50;5.00;;;9.00;99.90;;;;;;4850853;29;20217;-60
2022/04/20 04:23:41;;;;;;;5.50;5.00;;;9.00;99.90;;;;;;4847594;29;20538;-60
2022/04/20 04:26:25;;;;;;;6.30;5.63;;;8.90;99.90;;;;;;4850663;29;20466;-60
2022/04/20 04:28:56;;;;;;;5.43;4.97;;;9.00;99.90;;;;;;4850532;29;20446;-60
2022/04/20 04:31:30;;;;;;;5.43;5.03;;;9.00;99.90;;;;;;4850332;29;20293;-60
2022/04/20 04:34:01;;;;;;;6.70;5.90;;;9.10;99.90;;;;;;4849849;29;20505;-60
2022/04/20 04:36:34;;;;;;;6.50;5.83;;;9.20;99.90;;;;;;4850126;29;20478;-59
2022/04/20 04:39:07;;;;;;;6.45;5.90;;;9.20;99.90;;;;;;4842845;29;20479;-60
2022/04/20 04:41:38;;;;;;;7.20;5.93;;;9.20;99.90;;;;;;4850373;29;20217;-60
2022/04/20 04:44:08;;;;;;;5.83;5.43;;;9.10;99.90;;;;;;4849745;29;20229;-60
2022/04/20 04:49:28;;;;;;;8.97;8.00;;;9.10;99.90;;;;;;4849453;29;20561;-59
2022/04/20 04:52:00;;;;;;;7.57;6.85;;;9.20;99.90;;;;;;4850818;29;20908;-59
2022/04/20 04:54:33;;;;;;;7.43;6.72;;;9.20;99.90;;;;;;4838145;29;20217;-60
2022/04/20 04:57:04;;;;;;;8.87;7.97;;;9.40;99.90;;;;;;4845662;29;20635;-61
2022/04/20 04:59:35;;;;;;;6.93;6.40;;;9.50;99.90;;;;;;4843487;29;20813;-60
2022/04/20 05:02:07;;;;;;;6.45;5.95;;;9.50;99.90;;;;;;4850587;29;20217;-60
2022/04/20 05:04:39;;;;;;;5.68;5.25;;;9.50;99.90;;;;;;4845543;29;20324;-60
2022/04/20 05:07:11;;;;;;;6.00;5.50;;;9.60;99.90;;;;;;4845174;29;20213;-60
2022/04/20 05:09:44;;;;;;;7.10;6.40;;;9.50;99.90;;;;;;4845858;29;20483;-61
2022/04/20 05:12:17;;;;;;;6.57;5.97;;;9.60;99.90;;;;;;4849502;29;20466;-60
2022/04/20 05:14:48;;;;;;;5.73;5.23;;;9.60;99.90;;;;;;4843589;29;20471;-60
2022/04/20 05:17:21;;;;;;;7.15;5.60;;;9.60;99.90;;;;;;4848150;29;20581;-60
2022/04/20 05:19:52;;;;;;;6.53;5.93;;;9.70;99.90;;;;;;4850127;29;20213;-60
2022/04/20 05:22:25;;;;;;;5.87;5.37;;;9.70;99.90;;;;;;4850097;29;20494;-60
2022/04/20 05:24:58;;;;;;;6.33;5.73;;;9.60;99.90;;;;;;4850677;29;20872;-60
2022/04/20 05:27:30;;;;;;;5.93;5.43;;;9.50;99.90;;;;;;4849291;29;20458;-60
2022/04/20 05:30:03;;;;;;;5.20;4.80;;;9.50;99.90;;;;;;4850658;29;20462;-59
2022/04/20 05:32:39;;;;;;;5.30;4.90;;;9.40;99.90;;;;;;4850647;29;20470;-60
2022/04/20 05:35:11;;;;;;;4.80;4.50;;;9.40;99.90;;;;;;4853191;29;20470;-60
2022/04/20 05:43:24;;;;;;;4.33;3.90;;;9.30;99.90;;;;;;4852650;29;21030;-60
2022/04/20 05:45:55;;;;;;;4.82;4.43;;;9.30;99.90;;;;;;4839067;29;20489;-60
2022/04/20 05:48:27;;;;;;;4.78;4.35;;;9.20;99.90;;;;;;4848157;29;20205;-60
2022/04/20 05:50:58;;;;;;;4.63;4.20;;;9.20;99.90;;;;;;4853971;29;20209;-60
2022/04/20 05:53:29;;;;;;;4.00;3.60;;;9.30;99.90;;;;;;4850718;29;20262;-60
2022/04/20 05:56:01;;;;;;;4.00;3.70;;;9.20;99.90;;;;;;4839351;29;20205;-60
2022/04/20 05:58:33;;;;;;;3.90;3.50;;;9.10;99.90;;;;;;4852862;29;20220;-60
2022/04/20 06:01:04;;;;;;;4.05;3.70;;;9.20;99.90;;;;;;4848338;29;20239;-61
2022/04/20 06:03:35;;;;;;;4.63;3.90;;;9.20;99.90;;;;;;4853173;29;20228;-60
2022/04/20 06:06:05;;;;;;;3.47;3.17;;;9.20;99.90;;;;;;4851401;29;20866;-60
2022/04/20 06:08:36;;;;;;;3.67;3.35;;;9.20;99.90;;;;;;4852424;29;20482;-60
2022/04/20 06:11:11;;;;;;;3.25;2.97;;;9.20;99.90;;;;;;4847043;29;20234;-61
2022/04/20 06:13:41;;;;;;;3.47;2.83;;;9.20;99.90;;;;;;4849864;29;20808;-60
2022/04/20 06:16:13;;;;;;;3.08;2.83;;;9.10;99.90;;;;;;4850329;29;20470;-61
2022/04/20 06:18:44;;;;;;;3.30;3.10;;;9.10;99.90;;;;;;4851864;29;20682;-60
2022/04/20 06:21:14;;;;;;;3.43;3.20;;;9.10;99.90;;;;;;4847018;29;21299;-60
2022/04/20 06:23:45;;;;;;;3.78;3.47;;;9.00;99.90;;;;;;4850516;29;20482;-60
2022/04/20 06:26:17;;;;;;;3.47;3.17;;;9.00;99.90;;;;;;4852938;29;20575;-60
2022/04/20 06:28:48;;;;;;;3.70;3.40;;;8.90;99.90;;;;;;4848602;29;20220;-60
2022/04/20 06:31:19;;;;;;;3.80;3.50;;;8.90;99.90;;;;;;4853190;29;20491;-61
2022/04/20 06:33:51;;;;;;;5.23;3.10;;;8.90;99.90;;;;;;4852563;29;20498;-60
2022/04/20 06:36:22;;;;;;;2.87;2.67;;;8.80;99.90;;;;;;4843496;29;20474;-60
2022/04/20 06:38:53;;;;;;;3.23;3.03;;;8.80;99.90;;;;;;4849388;29;20485;-61
2022/04/20 06:41:25;;;;;;;3.40;3.05;;;8.70;99.90;;;;;;4846100;29;20482;-61
2022/04/20 06:43:57;;;;;;;3.30;3.00;;;8.70;99.90;;;;;;4851653;29;20660;-61
2022/04/20 06:46:28;;;;;;;3.42;3.13;;;8.70;99.90;;;;;;4850774;29;20576;-60
2022/04/20 06:49:04;;;;;;;3.42;2.85;;;8.70;99.90;;;;;;4852397;29;20209;-60
2022/04/20 06:59:55;;;;;;;4.00;3.13;;;8.60;99.90;;;;;;4845978;29;20474;-60
2022/04/20 07:02:26;;;;;;;3.47;2.47;;;8.60;99.90;;;;;;4850157;29;20229;-61
2022/04/20 07:04:57;;;;;;;4.68;2.97;;;8.50;99.90;;;;;;4851385;29;20561;-61
2022/04/20 07:07:28;;;;;;;4.13;2.75;;;8.40;99.90;;;;;;4848929;29;20231;-60
2022/04/20 07:10:18;;;;;;;2.17;2.08;;;8.50;99.90;;;;;;4840811;29;20298;-61
2022/04/20 07:12:52;;;;;;;3.25;2.47;;;8.40;99.90;;;;;;4851407;29;20305;-60
2022/04/20 07:15:25;;;;;;;2.20;2.00;;;8.30;99.90;;;;;;4851594;29;20340;-61
2022/04/20 07:17:57;;;;;;;2.20;2.08;;;8.20;99.90;;;;;;4851193;29;20235;-60
2022/04/20 07:20:27;;;;;;;3.83;2.45;;;8.10;99.90;;;;;;4848393;29;20559;-60
2022/04/20 07:22:58;;;;;;;2.58;2.08;;;8.00;99.90;;;;;;4844316;29;20320;-60
2022/04/20 07:25:30;;;;;;;2.72;2.53;;;7.80;99.90;;;;;;4851730;29;20325;-60
2022/04/20 07:28:02;;;;;;;2.83;2.63;;;7.70;99.90;;;;;;4850464;29;20237;-60
2022/04/20 07:30:34;;;;;;;2.55;2.35;;;7.60;99.90;;;;;;4851557;29;20689;-60
2022/04/20 07:33:05;;;;;;;2.90;2.25;;;7.50;99.90;;;;;;4850985;29;20289;-60
2022/04/20 07:35:36;;;;;;;2.60;2.40;;;7.40;99.90;;;;;;4851498;29;20560;-60
2022/04/20 07:38:07;;;;;;;2.95;2.60;;;7.30;99.90;;;;;;4851005;29;20245;-60
2022/04/20 07:40:38;;;;;;;2.80;2.60;;;7.20;99.90;;;;;;4847363;29;20214;-60
2022/04/20 07:43:10;;;;;;;3.58;2.55;;;7.20;99.90;;;;;;4850800;29;20225;-60
2022/04/20 07:45:41;;;;;;;4.05;3.75;;;7.20;99.90;;;;;;4851298;29;20244;-60
2022/04/20 07:48:12;;;;;;;3.38;2.63;;;7.10;99.90;;;;;;4850523;29;20231;-60
2022/04/20 07:50:42;;;;;;;3.10;2.80;;;7.00;99.90;;;;;;4850203;29;20210;-60
2022/04/20 07:53:13;;;;;;;2.30;2.20;;;7.00;99.90;;;;;;4851542;29;20338;-60
2022/04/20 07:55:46;;;;;;;3.20;2.90;;;6.90;99.90;;;;;;4850271;29;20883;-60
2022/04/20 07:58:18;;;;;;;2.67;2.47;;;6.90;99.90;;;;;;4846646;29;20232;-60
2022/04/20 08:00:51;;;;;;;3.58;2.60;;;6.80;99.90;;;;;;4848032;29;20232;-60
2022/04/20 08:03:22;;;;;;;3.25;2.90;;;6.70;99.90;;;;;;4850205;29;20262;-60
2022/04/20 08:05:55;;;;;;;3.30;2.25;;;6.70;99.90;;;;;;4850877;29;20236;-60
2022/04/20 08:08:26;;;;;;;2.90;2.70;;;6.60;99.90;;;;;;4850849;29;20209;-60
2022/04/20 08:10:57;;;;;;;3.20;3.00;;;6.60;99.90;;;;;;4848269;29;20233;-59
2022/04/20 08:16:13;;;;;;;2.95;2.65;;;6.50;99.90;;;;;;4841275;29;20217;-60
2022/04/20 08:18:44;;;;;;;4.63;2.97;;;6.50;99.90;;;;;;4851194;29;20209;-60
2022/04/20 08:21:18;;;;;;;3.15;2.92;;;6.50;99.90;;;;;;4850365;29;20220;-60
2022/04/20 08:23:49;;;;;;;3.40;3.10;;;6.40;99.90;;;;;;4849305;29;20232;-60
2022/04/20 08:26:19;;;;;;;3.63;2.70;;;6.30;99.90;;;;;;4847912;29;20344;-60
2022/04/20 08:28:52;;;;;;;3.50;3.13;;;6.30;99.90;;;;;;4848815;29;20213;-60
2022/04/20 08:31:23;;;;;;;3.20;2.90;;;6.30;99.90;;;;;;4849765;29;20217;-59
2022/04/20 08:33:55;;;;;;;3.15;2.70;;;6.20;99.90;;;;;;4848689;29;20228;-60
2022/04/20 08:36:26;;;;;;;2.90;2.70;;;6.20;99.90;;;;;;4850993;29;20210;-60
2022/04/20 08:38:56;;;;;;;3.30;3.00;;;6.20;99.90;;;;;;4848984;29;20305;-60
2022/04/20 08:41:27;;;;;;;4.05;3.22;;;6.10;99.90;;;;;;4850201;29;20217;-60
2022/04/20 08:44:02;;;;;;;4.75;3.38;;;6.10;99.90;;;;;;4847579;29;20213;-60
2022/04/20 08:46:41;;;;;;;3.80;3.50;;;6.00;99.90;;;;;;4850215;29;20255;-60
2022/04/20 08:49:12;;;;;;;4.50;2.92;;;6.00;99.90;;;;;;4843802;29;20236;-60
2022/04/20 08:54:33;;;;;;;6.53;4.10;;;5.90;99.90;;;;;;4849414;29;20201;-60
2022/04/20 08:57:20;;;;;;;4.55;3.53;;;5.90;99.90;;;;;;4849068;29;20209;-59
2022/04/20 08:59:52;;;;;;;5.05;3.85;;;5.90;99.90;;;;;;4847865;29;20323;-60
2022/04/20 09:02:24;;;;;;;3.83;3.53;;;5.80;99.90;;;;;;4850102;29;20205;-60
2022/04/20 09:04:55;;;;;;;4.38;3.70;;;5.80;99.90;;;;;;4849498;29;20220;-60
2022/04/20 09:07:26;;;;;;;4.63;3.60;;;5.80;99.90;;;;;;4849765;29;20245;-60
2022/04/20 09:09:57;;;;;;;4.35;3.95;;;5.80;99.90;;;;;;4847082;29;20271;-60
2022/04/20 09:12:28;;;;;;;3.60;3.30;;;5.80;99.90;;;;;;4849544;29;20293;-60
2022/04/20 09:15:01;;;;;;;3.70;3.40;;;5.70;99.90;;;;;;4850713;29;20212;-60
2022/04/20 09:17:40;;;;;;;4.40;4.00;;;5.70;99.90;;;;;;4850079;29;20217;-59
2022/04/20 09:20:18;;;;;;;3.95;3.65;;;5.60;99.90;;;;;;4849932;29;20217;-60
2022/04/20 09:23:03;;;;;;;4.10;3.70;;;5.50;99.90;;;;;;4844345;29;20217;-60
2022/04/20 09:25:36;;;;;;;4.40;4.05;;;5.50;99.90;;;;;;4845282;29;20205;-60
2022/04/20 09:28:08;;;;;;;4.32;3.45;;;5.50;99.90;;;;;;4846299;29;20225;-60
2022/04/20 09:30:42;;;;;;;4.95;4.28;;;5.40;99.90;;;;;;4850114;29;20206;-60
2022/04/20 09:33:15;;;;;;;5.00;3.17;;;5.40;99.90;;;;;;4849421;29;20209;-60
2022/04/20 09:35:47;;;;;;;4.63;4.22;;;5.40;99.90;;;;;;4850118;29;20213;-60
2022/04/20 09:38:21;;;;;;;6.03;4.60;;;5.30;99.90;;;;;;4846800;29;20688;-60
2022/04/20 09:40:52;;;;;;;3.88;3.58;;;5.30;99.90;;;;;;4840051;29;20217;-60
2022/04/20 09:43:23;;;;;;;4.05;3.65;;;5.30;99.90;;;;;;4848835;29;20232;-60
2022/04/20 09:48:50;;;;;;;4.03;3.63;;;5.20;99.90;;;;;;4849537;29;20324;-60
2022/04/20 09:49:06;;;;;;;4.55;4.10;;;5.10;99.90;;;;;;4848493;29;20673;-60
2022/04/20 09:51:42;;;;;;;4.60;4.15;;;5.10;99.90;;;;;;4849952;29;20217;-60
2022/04/20 09:54:26;;;;;;;6.30;4.00;;;5.10;99.90;;;;;;4844910;29;20213;-60
2022/04/20 09:57:13;;;;;;;3.92;3.63;;;5.10;99.90;;;;;;4850217;29;20240;-60
2022/04/20 09:59:58;;;;;;;4.10;3.80;;;5.10;99.90;;;;;;4845048;29;20213;-60
2022/04/20 10:02:52;;;;;;;4.10;3.47;;;5.00;99.90;;;;;;4842002;29;20213;-60
2022/04/20 10:05:25;;;;;;;4.20;3.83;;;4.90;99.90;;;;;;4841084;29;20213;-60
2022/04/20 10:07:59;;;;;;;3.95;3.55;;;4.90;99.90;;;;;;4848963;29;21065;-60
2022/04/20 10:10:31;;;;;;;4.50;3.67;;;4.90;99.90;;;;;;4849223;29;20233;-60
2022/04/20 10:13:03;;;;;;;5.68;4.28;;;4.90;99.90;;;;;;4847446;29;20213;-60
2022/04/20 10:18:25;;;;;;;3.53;3.20;;;4.80;99.90;;;;;;4844675;29;20218;-60
2022/04/20 10:20:58;;;;;;;4.07;3.50;;;4.80;99.90;;;;;;4849440;29;20216;-60
2022/04/20 10:23:30;;;;;;;3.70;3.40;;;4.80;99.90;;;;;;4851536;29;20260;-60
2022/04/20 10:26:02;;;;;;;6.80;3.28;;;4.80;99.90;;;;;;4851212;29;20624;-60
2022/04/20 10:28:41;;;;;;;4.53;4.05;;;4.70;99.90;;;;;;4850117;29;20675;-60
2022/04/20 10:31:20;;;;;;;3.33;3.00;;;4.70;99.90;;;;;;4851936;29;20228;-60
2022/04/20 10:33:53;;;;;;;3.45;3.08;;;4.70;99.90;;;;;;4852273;29;20213;-60
2022/04/20 10:36:31;;;;;;;3.35;3.05;;;4.70;99.90;;;;;;4853081;29;20205;-60
2022/04/20 10:39:27;;;;;;;3.50;3.20;;;4.60;99.90;;;;;;4851305;29;20213;-60
2022/04/20 10:42:21;;;;;;;3.50;3.20;;;4.60;99.90;;;;;;4830955;29;20222;-60
2022/04/20 10:44:57;;;;;;;3.40;3.10;;;4.60;99.90;;;;;;4853009;29;20304;-60
2022/04/20 10:47:29;;;;;;;4.00;2.65;;;4.50;99.90;;;;;;4852291;29;20233;-60
2022/04/20 10:50:19;;;;;;;2.97;2.67;;;4.50;99.90;;;;;;4852662;29;20213;-60
2022/04/20 10:52:56;;;;;;;3.28;2.90;;;4.50;99.90;;;;;;4850143;29;20289;-60
2022/04/20 10:55:54;;;;;;;3.33;3.13;;;4.50;99.90;;;;;;4851762;29;20217;-60
2022/04/20 10:58:25;;;;;;;2.40;2.20;;;4.50;99.90;;;;;;4848675;29;20228;-60
2022/04/20 11:01:11;;;;;;;2.75;2.55;;;4.50;99.90;;;;;;4852279;29;21044;-60
2022/04/20 11:04:06;;;;;;;2.80;2.60;;;4.50;99.90;;;;;;4851729;29;20231;-60
2022/04/20 11:07:18;;;;;;;2.78;2.58;;;4.50;99.90;;;;;;4844194;29;20205;-60
2022/04/20 11:09:59;;;;;;;2.92;2.55;;;4.50;99.90;;;;;;4842673;29;20243;-60
2022/04/20 11:19:08;;;;;;;3.15;2.85;;;4.40;99.90;;;;;;4849133;29;20206;-60
2022/04/20 11:21:52;;;;;;;3.03;2.83;;;4.40;99.90;;;;;;4849523;29;20210;-60
2022/04/20 11:24:31;;;;;;;3.35;2.80;;;4.50;99.90;;;;;;4851925;29;20309;-60
2022/04/20 11:27:02;;;;;;;6.30;2.45;;;4.50;99.90;;;;;;4850809;29;20213;-60
2022/04/20 11:29:33;;;;;;;2.38;2.17;;;4.40;99.90;;;;;;4851099;29;20216;-60
2022/04/20 11:32:07;;;;;;;3.00;2.80;;;4.40;99.90;;;;;;4839602;29;20533;-60
2022/04/20 11:34:41;;;;;;;2.70;2.50;;;4.40;99.90;;;;;;4851946;29;20277;-60
2022/04/20 11:37:12;;;;;;;4.50;2.90;;;4.50;99.90;;;;;;4850818;29;20295;-60
2022/04/20 11:39:44;;;;;;;2.70;2.50;;;4.40;99.90;;;;;;4851622;29;20259;-60
2022/04/20 11:42:17;;;;;;;2.85;2.65;;;4.50;99.90;;;;;;4850536;29;20256;-60
2022/04/20 11:44:49;;;;;;;3.45;2.80;;;4.50;99.90;;;;;;4852050;29;20224;-60
2022/04/20 11:47:20;;;;;;;2.80;2.60;;;4.50;99.90;;;;;;4840069;29;20293;-60
2022/04/20 11:49:51;;;;;;;2.80;2.60;;;4.50;99.90;;;;;;4851412;29;20214;-60
2022/04/20 11:52:22;;;;;;;2.63;2.42;;;4.60;99.90;;;;;;4850106;29;20228;-60
2022/04/20 11:54:54;;;;;;;2.95;2.65;;;4.60;99.90;;;;;;4851045;29;20286;-60
2022/04/20 11:57:25;;;;;;;3.00;2.80;;;4.50;99.90;;;;;;4849735;29;20228;-60
2022/04/20 12:00:00;;;;;;;5.75;2.95;;;4.70;99.90;;;;;;4850804;29;20327;-60
2022/04/20 12:02:31;;;;;;;4.45;2.90;;;4.70;99.90;;;;;;4842175;29;20215;-60
2022/04/20 12:05:09;;;;;;;2.70;2.50;;;4.70;99.90;;;;;;4850125;29;20229;-60
2022/04/20 12:07:40;;;;;;;3.45;3.15;;;4.60;99.90;;;;;;4849825;29;20312;-60
2022/04/20 12:10:13;;;;;;;2.90;2.60;;;4.60;99.90;;;;;;4851430;29;20259;-60
2022/04/20 12:12:44;;;;;;;3.67;2.67;;;4.60;99.90;;;;;;4849840;29;20213;-60
2022/04/20 12:15:15;;;;;;;2.83;2.63;;;4.60;99.90;;;;;;4852165;29;20228;-60
2022/04/20 12:17:46;;;;;;;2.60;2.38;;;4.60;99.90;;;;;;4846597;29;20241;-60
2022/04/20 12:20:17;;;;;;;2.63;2.40;;;4.50;99.90;;;;;;4843597;29;20283;-60
2022/04/20 12:22:48;;;;;;;5.00;2.90;;;4.60;99.90;;;;;;4849126;29;20217;-59
2022/04/20 12:25:21;;;;;;;3.15;2.35;;;4.60;99.90;;;;;;4850862;29;20225;-60
2022/04/20 12:27:53;;;;;;;3.20;2.90;;;4.70;99.90;;;;;;4849734;29;20312;-60
2022/04/20 12:30:44;;;;;;;2.65;2.45;;;4.70;99.90;;;;;;4850431;29;20212;-60
2022/04/20 12:33:23;;;;;;;2.85;2.25;;;4.80;99.90;;;;;;4840497;29;20240;-60
2022/04/20 12:36:06;;;;;;;3.08;2.83;;;4.80;99.90;;;;;;4849807;29;20223;-59
2022/04/20 12:38:47;;;;;;;2.53;2.30;;;4.90;99.90;;;;;;4847988;29;20236;-60
2022/04/20 12:41:45;;;;;;;2.53;2.20;;;4.90;99.90;;;;;;4850414;29;20221;-59
2022/04/20 12:44:54;;;;;;;2.20;2.10;;;4.90;99.90;;;;;;4849030;29;20534;-59
2022/04/20 12:47:43;;;;;;;4.97;2.30;;;5.00;99.90;;;;;;4840276;29;20726;-60
2022/04/20 12:50:19;;;;;;;2.67;2.20;;;5.00;99.90;;;;;;4849747;29;20214;-60
2022/04/20 12:52:59;;;;;;;1.70;1.60;;;5.20;99.90;;;;;;4849591;29;20209;-59
2022/04/20 12:55:40;;;;;;;2.78;2.58;;;5.40;99.90;;;;;;4850492;29;20216;-60
2022/04/20 13:04:04;;;;;;;1.40;1.30;;;5.50;99.90;;;;;;4849145;29;20213;-59
2022/04/20 13:06:35;;;;;;;1.65;1.30;;;5.60;99.90;;;;;;4849508;29;20224;-60
2022/04/20 13:09:06;;;;;;;2.38;2.17;;;5.60;99.90;;;;;;4848876;29;20237;-60
2022/04/20 13:11:36;;;;;;;1.77;1.67;;;5.70;99.90;;;;;;4848707;29;20245;-59
2022/04/20 13:14:10;;;;;;;2.05;1.95;;;5.70;99.90;;;;;;4848645;29;20313;-60
2022/04/20 13:16:41;;;;;;;1.90;1.80;;;5.70;99.90;;;;;;4848904;29;20209;-60
2022/04/20 13:19:12;;;;;;;1.92;1.83;;;5.80;99.90;;;;;;4840917;29;20217;-60
2022/04/20 13:21:44;;;;;;;1.77;1.67;;;5.90;99.90;;;;;;4845759;29;20219;-59
2022/04/20 13:27:53;;;;;;;1.60;1.50;;;5.90;99.90;;;;;;4847873;29;20281;-60
2022/04/20 13:29:55;;;;;;;1.45;1.35;;;6.00;99.90;;;;;;4850652;29;20241;-59
2022/04/20 13:32:25;;;;;;;1.35;1.25;;;6.00;99.90;;;;;;4845244;29;20301;-59
2022/04/20 13:34:56;;;;;;;2.00;1.20;;;6.10;99.90;;;;;;4849598;29;20220;-60
2022/04/20 13:37:27;;;;;;;1.35;1.23;;;6.10;99.90;;;;;;4847596;29;20213;-59
2022/04/20 13:39:58;;;;;;;1.20;1.10;;;6.20;99.90;;;;;;4849651;29;20560;-60
2022/04/20 13:42:29;;;;;;;1.60;1.30;;;6.20;99.90;;;;;;4848396;29;20272;-59
2022/04/20 13:45:02;;;;;;;1.20;1.10;;;6.20;99.90;;;;;;4848493;29;20626;-59
2022/04/20 13:47:32;;;;;;;1.25;1.25;;;6.20;99.90;;;;;;4849401;29;20298;-66
2022/04/20 13:50:06;;;;;;;1.17;1.17;;;6.30;99.90;;;;;;4850714;29;20243;-59
2022/04/20 13:52:37;;;;;;;1.70;1.60;;;6.30;99.90;;;;;;4847635;29;20216;-57
2022/04/20 13:55:10;;;;;;;1.15;1.10;;;6.30;99.90;;;;;;4851518;29;20225;-57
2022/04/20 13:57:41;;;;;;;1.48;1.38;;;6.40;99.90;;;;;;4846450;29;20214;-59
2022/04/20 14:00:15;;;;;;;1.80;1.65;;;6.40;99.90;;;;;;4853775;29;20224;-59
2022/04/20 14:02:46;;;;;;;2.00;1.30;;;6.40;99.90;;;;;;4854011;29;20218;-59
2022/04/20 14:05:17;;;;;;;1.23;1.20;;;6.40;99.90;;;;;;4854051;29;20247;-60
2022/04/20 14:07:48;;;;;;;0.88;0.85;;;6.50;99.90;;;;;;4854086;29;20201;-58
2022/04/20 14:10:19;;;;;;;1.20;1.10;;;6.60;99.90;;;;;;4838631;29;20726;-60
2022/04/20 14:12:50;;;;;;;1.10;1.00;;;6.60;99.90;;;;;;4852946;29;20225;-59